Time;durP1;ratioP1;P1;durP2;ratioP2;P2;SDS_P1;SDS_P2;PMS_P1;PMS_P2;Temp;Humidity;BMP_temperature;BMP_pressure;BME280_temperature;BME280_humidity;BME280_pressure;Samples;Min_cycle;Max_cycle;Signal;HPM_P1;HPM_P2
2023/02/25 00:00:18;;;;;;;24.50;13.60;;;;;;;6.62;67.83;99132.91;108082;1254;73865;-64
2023/02/25 00:02:49;;;;;;;21.70;13.10;;;;;;;6.63;67.96;99125.80;108063;1254;61925;-65
2023/02/25 00:05:18;;;;;;;31.40;14.20;;;;;;;6.62;68.09;99123.36;108068;1255;59973;-65
2023/02/25 00:07:50;;;;;;;20.90;12.60;;;;;;;6.62;68.18;99119.80;108099;1254;73191;-63
2023/02/25 00:10:18;;;;;;;24.20;13.40;;;;;;;6.62;68.28;99117.30;108093;1254;72326;-64
2023/02/25 00:12:47;;;;;;;22.00;14.30;;;;;;;6.63;68.37;99113.70;108134;1254;72893;-62
2023/02/25 00:15:16;;;;;;;26.50;14.70;;;;;;;6.65;68.40;99118.59;108107;1254;62424;-63
2023/02/25 00:17:48;;;;;;;25.10;13.90;;;;;;;6.65;68.52;99114.50;108140;1254;60328;-65
2023/02/25 00:20:19;;;;;;;24.80;13.60;;;;;;;6.68;68.56;99116.78;108050;1255;73079;-64
2023/02/25 00:22:48;;;;;;;20.10;13.70;;;;;;;6.68;68.62;99116.52;108107;1254;73305;-64
2023/02/25 00:25:17;;;;;;;25.10;14.40;;;;;;;6.68;68.65;99118.05;108071;1254;73611;-64
2023/02/25 00:27:46;;;;;;;18.80;13.60;;;;;;;6.68;68.72;99118.95;108068;1254;62881;-66
2023/02/25 00:30:15;;;;;;;23.30;14.60;;;;;;;6.68;68.83;99115.14;108104;1255;60434;-64
2023/02/25 00:32:43;;;;;;;26.00;14.20;;;;;;;6.68;68.84;99108.77;108105;1255;73756;-67
2023/02/25 00:35:13;;;;;;;27.80;14.60;;;;;;;6.71;68.91;99107.31;107974;1254;73119;-67
2023/02/25 00:37:43;;;;;;;23.10;14.60;;;;;;;6.73;68.89;99105.30;108098;1258;72163;-63
2023/02/25 00:40:14;;;;;;;24.90;14.90;;;;;;;6.75;68.86;99101.23;108082;1255;61969;-64
2023/02/25 00:42:42;;;;;;;24.50;14.70;;;;;;;6.76;68.93;99098.98;108075;1254;61626;-64
2023/02/25 00:45:11;;;;;;;26.90;15.40;;;;;;;6.77;68.91;99095.91;108050;1254;73505;-64
2023/02/25 00:47:40;;;;;;;27.80;15.10;;;;;;;6.77;68.89;99093.84;108034;1254;71485;-65
2023/02/25 00:50:13;;;;;;;27.60;15.00;;;;;;;6.77;68.98;99092.41;107914;1257;71926;-65
2023/02/25 00:52:42;;;;;;;26.40;15.90;;;;;;;6.78;68.92;99087.16;107996;1258;62317;-65
2023/02/25 00:55:14;;;;;;;26.10;15.10;;;;;;;6.79;68.91;99084.98;108005;1255;61144;-65
2023/02/25 00:57:43;;;;;;;24.70;14.80;;;;;;;6.80;69.01;99080.46;107984;1256;74817;-65
2023/02/25 01:00:15;;;;;;;28.30;16.20;;;;;;;6.80;68.95;99078.44;108004;1256;72258;-66
2023/02/25 01:02:44;;;;;;;24.90;15.30;;;;;;;6.81;68.98;99078.81;107938;1254;72440;-64
2023/02/25 01:05:14;;;;;;;26.10;15.00;;;;;;;6.80;68.97;99080.40;108083;1254;61170;-65
2023/02/25 01:07:46;;;;;;;27.90;15.20;;;;;;;6.78;68.99;99075.80;108058;1254;61352;-64
2023/02/25 01:10:19;;;;;;;22.40;15.00;;;;;;;6.77;69.01;99069.95;108029;1254;74820;-66
2023/02/25 01:13:03;;;;;;;25.80;15.60;;;;;;;6.76;69.00;99069.20;108044;1258;72982;-65
2023/02/25 01:15:34;;;;;;;21.00;14.80;;;;;;;6.77;69.11;99064.21;108041;1254;73032;-63
2023/02/25 01:32:00;;;;;;;28.20;16.40;;;;;;;6.74;69.11;99047.83;107552;1257;71999;-65
2023/02/25 01:34:29;;;;;;;25.00;16.50;;;;;;;6.74;69.08;99045.28;108018;1257;72452;-64
2023/02/25 01:37:03;;;;;;;25.20;15.10;;;;;;;6.73;69.09;99041.95;107954;1256;61198;-65
2023/02/25 01:39:33;;;;;;;24.40;15.80;;;;;;;6.69;69.12;99031.86;107812;1258;60303;-65
2023/02/25 01:42:03;;;;;;;24.40;15.80;;;;;;;6.67;69.12;99028.95;107988;1257;73861;-65
2023/02/25 01:44:33;;;;;;;30.10;17.20;;;;;;;6.62;69.24;99025.40;107807;1257;72577;-65
2023/02/25 01:47:19;;;;;;;24.90;15.40;;;;;;;6.57;69.32;99025.36;107944;1257;71872;-65
2023/02/25 01:49:48;;;;;;;26.70;17.10;;;;;;;6.55;69.42;99022.08;107717;1256;60519;-64
2023/02/25 01:52:21;;;;;;;25.90;16.40;;;;;;;6.55;69.53;99018.09;107926;1257;60322;-64
2023/02/25 01:54:53;;;;;;;26.70;17.00;;;;;;;6.56;69.62;99012.31;107948;1260;73247;-66
2023/02/25 01:57:23;;;;;;;24.90;16.70;;;;;;;6.58;69.75;99006.52;107865;1257;73056;-66
2023/02/25 01:59:52;;;;;;;25.80;16.20;;;;;;;6.58;69.78;99006.90;107746;1256;73727;-65
2023/02/25 02:02:22;;;;;;;26.90;17.70;;;;;;;6.58;69.79;99008.42;107843;1257;60018;-64
2023/02/25 02:04:52;;;;;;;24.90;17.60;;;;;;;6.59;69.87;99005.10;108093;1257;60258;-66
2023/02/25 02:07:21;;;;;;;29.00;16.60;;;;;;;6.60;69.86;98997.56;107850;1257;74534;-64
2023/02/25 02:09:55;;;;;;;25.50;17.30;;;;;;;6.59;69.78;98987.36;107962;1257;72337;-64
2023/02/25 02:12:36;;;;;;;24.60;16.20;;;;;;;6.57;69.80;98981.69;107908;1257;71989;-64
2023/02/25 02:15:07;;;;;;;23.40;15.30;;;;;;;6.56;69.85;98986.59;107829;1257;62271;-64
2023/02/25 02:17:58;;;;;;;32.10;17.90;;;;;;;6.54;69.74;98982.49;107902;1257;60298;-63
2023/02/25 02:20:57;;;;;;;25.60;17.60;;;;;;;6.53;69.74;98977.35;108107;1255;72166;-66
2023/02/25 02:23:41;;;;;;;25.20;17.20;;;;;;;6.49;69.74;98976.14;108114;1257;72195;-65
2023/02/25 02:26:27;;;;;;;27.10;16.50;;;;;;;6.45;69.73;98980.98;108098;1254;72622;-69
2023/02/25 02:29:11;;;;;;;27.70;16.70;;;;;;;6.42;69.83;98988.36;107819;1257;60535;-64
2023/02/25 02:31:52;;;;;;;27.50;16.80;;;;;;;6.39;69.91;98991.60;107928;1256;60651;-65
2023/02/25 02:34:41;;;;;;;28.20;18.20;;;;;;;6.38;69.87;98990.05;107924;1257;73778;-64
2023/02/25 02:37:14;;;;;;;29.30;16.90;;;;;;;6.37;69.92;98985.23;107964;1256;73194;-63
2023/02/25 02:40:13;;;;;;;32.80;19.00;;;;;;;6.34;69.98;98983.87;107823;1256;73847;-63
2023/02/25 02:42:54;;;;;;;29.30;17.80;;;;;;;6.35;70.05;98983.86;107873;1256;62499;-63
2023/02/25 02:45:46;;;;;;;26.60;18.40;;;;;;;6.35;70.05;98979.14;107832;1256;60363;-65
2023/02/25 02:48:18;;;;;;;31.50;18.40;;;;;;;6.34;70.05;98980.30;108033;1257;75134;-64
2023/02/25 02:50:51;;;;;;;32.60;19.30;;;;;;;6.34;70.02;98973.36;107943;1256;72584;-64
2023/02/25 02:53:23;;;;;;;27.50;18.50;;;;;;;6.31;70.07;98969.23;107946;1257;72689;-64
2023/02/25 02:55:54;;;;;;;31.50;19.40;;;;;;;6.27;70.00;98966.73;107906;1260;61501;-64
2023/02/25 02:58:43;;;;;;;33.00;19.50;;;;;;;6.24;70.12;98964.94;107949;1256;60378;-63
2023/02/25 03:01:36;;;;;;;31.80;20.00;;;;;;;6.24;70.18;98965.95;107929;1256;73658;-64
2023/02/25 03:04:06;;;;;;;30.70;19.60;;;;;;;6.21;70.24;98957.05;107924;1257;72906;-64
2023/02/25 03:06:38;;;;;;;33.50;21.70;;;;;;;6.21;70.30;98955.77;107859;1257;73128;-64
2023/02/25 03:09:30;;;;;;;31.10;19.20;;;;;;;6.21;70.43;98953.80;108070;1257;61072;-65
2023/02/25 03:12:01;;;;;;;32.80;20.20;;;;;;;6.22;70.50;98950.04;107832;1258;61329;-65
2023/02/25 03:14:35;;;;;;;;;;;;;;;6.21;70.56;98944.90;107938;1260;72897;-65
2023/02/25 03:17:14;;;;;;;32.10;20.50;;;;;;;6.20;70.56;98938.55;107922;1256;71846;-65
2023/02/25 03:20:19;;;;;;;32.40;20.10;;;;;;;6.19;70.60;98938.23;107902;1256;72416;-64
2023/02/25 03:22:49;;;;;;;34.90;21.50;;;;;;;6.21;70.71;98932.08;107856;1255;60685;-64
2023/02/25 03:25:28;;;;;;;29.60;20.30;;;;;;;6.25;70.64;98937.31;107840;1257;61058;-65
2023/02/25 03:28:21;;;;;;;32.70;20.20;;;;;;;6.28;70.69;98936.77;107864;1256;71874;-65
2023/02/25 03:31:00;;;;;;;31.00;20.20;;;;;;;6.32;70.73;98926.80;107931;1260;72075;-64
2023/02/25 03:33:37;;;;;;;32.50;20.70;;;;;;;6.36;70.74;98927.11;107924;1254;72746;-64
2023/02/25 03:36:11;;;;;;;34.50;20.90;;;;;;;6.37;70.70;98930.77;108115;1254;60922;-64
2023/02/25 03:38:45;;;;;;;34.20;20.70;;;;;;;6.37;70.71;98930.44;107968;1254;60431;-64
2023/02/25 03:41:14;;;;;;;34.70;20.60;;;;;;;6.41;70.74;98928.80;107938;1259;73407;-68
2023/02/25 03:43:49;;;;;;;32.70;21.10;;;;;;;6.47;70.74;98926.55;107926;1256;72716;-64
2023/02/25 03:46:20;;;;;;;30.40;20.80;;;;;;;6.52;70.65;98927.44;108144;1256;70545;-65
2023/02/25 03:48:50;;;;;;;33.80;21.10;;;;;;;6.56;70.67;98923.77;107948;1256;61421;-65
2023/02/25 03:51:22;;;;;;;29.10;19.70;;;;;;;6.60;70.51;98914.42;107855;1256;60425;-65
2023/02/25 03:53:52;;;;;;;31.60;20.60;;;;;;;6.63;70.52;98915.31;108153;1257;71643;-63
2023/02/25 03:56:26;;;;;;;35.40;23.00;;;;;;;6.64;70.50;98916.09;108124;1256;73193;-64
2023/02/25 03:58:55;;;;;;;34.60;22.50;;;;;;;6.67;70.55;98915.81;107825;1262;71850;-64
2023/02/25 04:01:27;;;;;;;32.90;21.50;;;;;;;6.70;70.43;98917.57;108068;1256;60636;-63
2023/02/25 04:03:55;;;;;;;37.00;23.10;;;;;;;6.69;70.34;98919.53;107975;1255;60132;-64
2023/02/25 04:06:24;;;;;;;35.50;23.20;;;;;;;6.66;70.28;98912.00;108111;1256;74805;-64
2023/02/25 04:08:53;;;;;;;35.00;22.40;;;;;;;6.64;70.29;98912.38;108099;1256;71862;-64
2023/02/25 04:11:22;;;;;;;34.20;23.10;;;;;;;6.64;70.33;98910.74;108058;1257;72929;-64
2023/02/25 04:13:51;;;;;;;37.10;23.70;;;;;;;6.67;70.43;98907.00;107842;1256;61296;-64
2023/02/25 04:16:20;;;;;;;35.80;22.40;;;;;;;6.69;70.36;98904.20;108106;1255;60438;-64
2023/02/25 04:18:54;;;;;;;35.60;23.20;;;;;;;6.70;70.37;98901.54;108062;1256;73999;-65
2023/02/25 04:21:34;;;;;;;32.50;21.90;;;;;;;6.71;70.31;98900.30;108083;1255;72526;-63
2023/02/25 04:24:07;;;;;;;37.90;24.10;;;;;;;6.71;70.28;98895.55;108097;1256;72019;-63
2023/02/25 04:26:35;;;;;;;33.60;21.60;;;;;;;6.72;70.33;98897.34;108091;1254;60993;-64
2023/02/25 04:29:04;;;;;;;40.50;24.10;;;;;;;6.73;70.32;98897.48;108105;1254;60521;-63
2023/02/25 04:31:35;;;;;;;35.00;23.40;;;;;;;6.75;70.46;98893.66;108096;1254;73023;-64
2023/02/25 04:34:05;;;;;;;32.20;22.60;;;;;;;6.76;70.37;98891.32;108134;1254;73503;-65
2023/02/25 04:36:34;;;;;;;32.60;22.80;;;;;;;6.77;70.40;98890.94;108108;1254;73645;-65
2023/02/25 04:39:05;;;;;;;33.10;24.20;;;;;;;6.78;70.34;98889.52;108115;1254;63225;-64
2023/02/25 04:41:37;;;;;;;34.50;22.60;;;;;;;6.80;70.37;98885.25;108165;1254;61360;-63
2023/02/25 04:44:06;;;;;;;36.30;23.00;;;;;;;6.83;70.35;98879.52;108115;1254;72720;-64
2023/02/25 04:46:37;;;;;;;36.40;23.90;;;;;;;6.85;70.30;98879.02;108106;1254;72939;-65
2023/02/25 04:49:07;;;;;;;33.30;21.60;;;;;;;6.86;70.21;98871.11;108114;1254;71539;-64
2023/02/25 04:51:37;;;;;;;30.80;21.90;;;;;;;6.88;70.25;98880.17;108109;1254;60545;-65
2023/02/25 04:54:07;;;;;;;34.10;23.30;;;;;;;6.88;70.18;98876.45;108125;1257;60432;-65
2023/02/25 04:56:36;;;;;;;37.30;23.30;;;;;;;6.89;70.14;98864.41;108110;1254;74556;-64
2023/02/25 04:59:05;;;;;;;36.20;22.80;;;;;;;6.91;70.15;98862.59;108076;1254;74156;-66
2023/02/25 05:01:36;;;;;;;34.70;23.10;;;;;;;6.93;70.07;98868.83;108084;1257;73916;-65
2023/02/25 05:04:06;;;;;;;31.40;21.90;;;;;;;6.94;70.02;98866.18;108141;1255;62667;-65
2023/02/25 05:06:38;;;;;;;36.00;23.10;;;;;;;6.93;69.95;98861.09;108130;1255;60265;-65
2023/02/25 05:09:11;;;;;;;33.70;23.20;;;;;;;6.92;69.99;98858.92;108120;1257;74593;-65
2023/02/25 05:11:44;;;;;;;37.00;23.80;;;;;;;6.93;69.93;98854.56;108132;1255;72226;-64
2023/02/25 05:14:21;;;;;;;31.70;22.40;;;;;;;6.95;69.97;98846.06;108105;1259;73624;-64
2023/02/25 05:16:51;;;;;;;34.50;22.60;;;;;;;6.95;69.87;98843.83;108108;1255;62818;-64
2023/02/25 05:19:22;;;;;;;35.30;23.40;;;;;;;6.95;69.80;98842.23;108119;1255;60332;-65
2023/02/25 05:22:01;;;;;;;34.60;23.30;;;;;;;6.95;69.76;98850.36;108086;1256;74853;-64
2023/02/25 05:24:33;;;;;;;28.60;20.30;;;;;;;6.95;69.77;98860.50;107913;1257;70907;-64
2023/02/25 05:27:08;;;;;;;35.90;23.80;;;;;;;6.94;69.64;98861.14;108082;1255;73077;-66
2023/02/25 05:29:39;;;;;;;35.40;23.00;;;;;;;6.92;69.77;98859.61;108138;1257;61748;-65
2023/02/25 05:32:11;;;;;;;39.20;24.50;;;;;;;6.92;69.79;98860.52;108118;1256;60193;-66
2023/02/25 05:34:49;;;;;;;34.50;23.90;;;;;;;6.95;69.84;98859.92;108091;1254;74725;-65
2023/02/25 05:37:29;;;;;;;35.20;23.10;;;;;;;6.97;69.80;98868.19;108106;1254;73100;-64
2023/02/25 05:40:02;;;;;;;36.50;24.00;;;;;;;6.98;69.75;98871.41;108142;1254;71980;-64
2023/02/25 05:42:36;;;;;;;33.80;22.50;;;;;;;7.00;69.81;98869.06;108108;1254;61927;-64
2023/02/25 05:45:10;;;;;;;33.30;23.70;;;;;;;7.00;69.73;98865.19;108090;1254;61150;-64
2023/02/25 05:47:40;;;;;;;36.30;24.60;;;;;;;7.02;69.79;98874.04;108090;1256;72516;-64
2023/02/25 05:50:17;;;;;;;36.70;24.00;;;;;;;7.05;69.74;98878.70;108084;1256;73365;-66
2023/02/25 05:53:05;;;;;;;37.90;24.60;;;;;;;7.07;69.64;98875.55;107932;1256;71763;-64
2023/02/25 05:55:47;;;;;;;39.50;24.40;;;;;;;7.07;69.70;98871.26;108094;1254;60498;-64
2023/02/25 05:58:19;;;;;;;;;;;;;;;7.07;69.58;98867.42;108127;1254;61231;-64
2023/02/25 06:00:54;;;;;;;38.80;25.80;;;;;;;7.07;69.64;98864.45;108087;1254;74336;-65
2023/02/25 06:03:26;;;;;;;38.80;24.20;;;;;;;7.09;69.58;98856.39;108131;1254;73827;-64
2023/02/25 06:05:57;;;;;;;38.10;24.70;;;;;;;7.08;69.63;98850.81;108102;1254;71843;-64
2023/02/25 06:08:46;;;;;;;37.80;25.10;;;;;;;7.10;69.58;98847.66;108096;1254;61652;-69
2023/02/25 06:11:25;;;;;;;36.80;24.00;;;;;;;7.12;69.63;98851.73;108144;1254;61035;-67
2023/02/25 06:13:56;;;;;;;36.20;24.80;;;;;;;7.16;69.59;98849.86;108123;1254;73624;-66
2023/02/25 06:16:31;;;;;;;40.10;24.90;;;;;;;7.20;69.60;98852.00;108123;1256;71631;-66
2023/02/25 06:19:03;;;;;;;36.00;23.90;;;;;;;7.24;69.66;98847.52;108089;1256;74559;-66
2023/02/25 06:21:57;;;;;;;40.90;26.20;;;;;;;7.31;69.62;98850.80;107858;1256;62907;-65
2023/02/25 06:24:48;;;;;;;35.60;24.40;;;;;;;7.41;69.59;98839.48;108092;1256;60406;-66
2023/02/25 06:27:22;;;;;;;38.80;25.10;;;;;;;7.48;69.48;98826.09;108142;1255;74065;-65
2023/02/25 06:30:08;;;;;;;39.40;24.50;;;;;;;7.58;69.30;98816.49;108090;1255;73692;-66
2023/02/25 06:33:08;;;;;;;36.00;24.40;;;;;;;7.64;69.16;98807.34;108050;1259;72815;-64
2023/02/25 06:35:50;;;;;;;38.90;25.80;;;;;;;7.67;68.97;98792.54;107934;1256;62091;-64
2023/02/25 06:38:38;;;;;;;40.70;26.10;;;;;;;7.74;68.86;98785.98;107879;1260;60418;-64
2023/02/25 06:41:14;;;;;;;39.20;25.20;;;;;;;7.82;68.71;98780.11;108100;1255;73735;-66
2023/02/25 06:43:53;;;;;;;37.30;26.20;;;;;;;7.87;68.45;98775.42;107959;1257;74008;-65
2023/02/25 06:46:25;;;;;;;38.80;26.40;;;;;;;7.92;68.29;98763.48;107958;1256;71412;-67
2023/02/25 06:49:08;;;;;;;38.60;26.20;;;;;;;7.93;68.07;98760.27;107915;1256;60332;-65
2023/02/25 06:51:57;;;;;;;38.20;26.20;;;;;;;7.95;67.82;98750.66;107836;1256;60377;-65
2023/02/25 06:54:27;;;;;;;40.60;26.80;;;;;;;7.96;67.65;98747.63;107970;1256;75135;-64
2023/02/25 06:57:09;;;;;;;40.20;25.90;;;;;;;7.94;67.44;98751.48;107939;1256;72706;-64
2023/02/25 07:00:06;;;;;;;42.90;27.20;;;;;;;7.92;67.32;98758.78;108062;1255;72971;-64
2023/02/25 07:02:49;;;;;;;36.50;25.40;;;;;;;7.93;67.32;98773.61;107969;1255;62288;-64
2023/02/25 07:05:53;;;;;;;37.70;25.00;;;;;;;7.93;67.21;98778.60;107911;1255;60358;-65
2023/02/25 07:08:54;;;;;;;39.80;26.00;;;;;;;7.96;67.17;98777.36;108067;1256;73758;-63
2023/02/25 07:11:52;;;;;;;38.60;25.90;;;;;;;8.01;67.15;98770.02;108110;1256;73030;-65
2023/02/25 07:14:44;;;;;;;37.00;25.30;;;;;;;8.06;67.06;98774.33;108152;1255;72093;-66
2023/02/25 07:17:36;;;;;;;38.40;26.80;;;;;;;8.09;66.92;98770.92;107956;1255;61101;-63
2023/02/25 07:20:27;;;;;;;38.90;27.50;;;;;;;8.11;66.85;98761.88;108079;1256;60434;-65
2023/02/25 07:23:11;;;;;;;41.40;26.90;;;;;;;8.15;66.75;98754.33;107926;1256;73309;-64
2023/02/25 07:25:58;;;;;;;41.50;27.70;;;;;;;8.16;66.50;98747.23;108163;1254;73031;-67
2023/02/25 07:28:38;;;;;;;41.70;27.40;;;;;;;8.16;66.33;98749.73;108126;1254;72353;-69
2023/02/25 07:31:16;;;;;;;39.80;27.00;;;;;;;8.16;66.39;98750.10;108205;1254;60285;-69
2023/02/25 07:33:50;;;;;;;36.90;25.50;;;;;;;8.22;66.35;98742.11;108165;1254;60352;-68
2023/02/25 07:36:19;;;;;;;43.70;28.00;;;;;;;8.30;66.38;98737.81;108142;1254;74366;-68
2023/02/25 07:38:53;;;;;;;27.50;20.20;;;;;;;8.40;66.29;98732.05;108143;1254;72781;-66
2023/02/25 07:41:32;;;;;;;39.90;27.20;;;;;;;8.51;66.28;98724.14;108032;1254;71730;-65
2023/02/25 07:44:05;;;;;;;41.30;26.90;;;;;;;8.59;66.10;98714.55;108011;1254;60283;-64
2023/02/25 07:47:15;;;;;;;38.40;26.60;;;;;;;8.67;65.92;98710.02;108151;1254;60412;-65
2023/02/25 07:50:19;;;;;;;38.40;26.10;;;;;;;8.76;65.66;98703.13;108082;1254;74282;-65
2023/02/25 08:05:40;;;;;;;37.60;26.10;;;;;;;9.17;64.41;98713.31;107849;1256;60528;-64
2023/02/25 08:08:09;;;;;;;36.60;25.30;;;;;;;9.19;64.14;98710.80;107836;1256;74111;-66
2023/02/25 08:10:37;;;;;;;38.00;26.00;;;;;;;9.16;63.88;98706.95;108055;1256;71209;-64
2023/02/25 08:13:16;;;;;;;40.70;25.70;;;;;;;9.16;63.80;98702.77;108042;1256;73029;-63
2023/02/25 08:15:45;;;;;;;37.40;25.60;;;;;;;9.20;63.81;98698.35;107912;1256;60662;-64
2023/02/25 08:18:17;;;;;;;32.60;24.20;;;;;;;9.21;63.59;98700.31;107955;1256;60338;-64
2023/02/25 08:20:48;;;;;;;38.30;26.20;;;;;;;9.20;63.41;98703.80;107928;1256;72113;-65
2023/02/25 08:23:18;;;;;;;34.20;24.80;;;;;;;9.16;63.27;98704.38;108099;1255;73060;-65
2023/02/25 08:25:51;;;;;;;34.70;24.60;;;;;;;9.16;63.26;98695.33;108077;1257;72621;-65
2023/02/25 08:28:24;;;;;;;35.30;24.80;;;;;;;9.16;63.23;98696.45;108059;1256;60571;-66
2023/02/25 08:30:54;;;;;;;40.70;25.20;;;;;;;9.20;63.24;98684.30;108106;1256;60349;-64
2023/02/25 08:33:24;;;;;;;34.00;25.00;;;;;;;9.24;63.23;98685.40;108041;1257;74161;-67
2023/02/25 08:36:09;;;;;;;36.60;25.40;;;;;;;9.29;63.15;98682.05;108062;1255;71822;-64
2023/02/25 08:38:38;;;;;;;32.40;23.70;;;;;;;9.35;63.02;98682.05;107938;1257;73001;-66
2023/02/25 08:41:07;;;;;;;30.20;22.40;;;;;;;9.37;62.89;98684.02;108099;1256;62231;-64
2023/02/25 08:43:36;;;;;;;35.90;24.80;;;;;;;9.37;62.67;98680.25;107974;1257;61528;-65
2023/02/25 08:46:05;;;;;;;34.80;24.80;;;;;;;9.38;62.62;98682.59;108086;1256;72139;-64
2023/02/25 08:48:34;;;;;;;32.70;24.20;;;;;;;9.36;62.42;98671.05;107880;1256;74045;-64
2023/02/25 08:51:07;;;;;;;32.50;23.40;;;;;;;9.32;62.54;98670.91;108038;1256;72565;-64
2023/02/25 08:53:39;;;;;;;30.00;22.30;;;;;;;9.34;62.53;98666.93;108026;1257;61292;-65
2023/02/25 08:56:09;;;;;;;33.50;24.40;;;;;;;9.38;62.49;98663.98;108078;1256;60435;-64
2023/02/25 08:58:38;;;;;;;31.10;23.10;;;;;;;9.44;62.57;98659.25;107985;1257;74259;-66
2023/02/25 09:01:11;;;;;;;36.00;23.60;;;;;;;9.50;62.45;98651.66;108099;1257;73659;-67
2023/02/25 09:03:53;;;;;;;33.30;23.00;;;;;;;9.60;62.47;98645.29;108116;1256;72315;-65
2023/02/25 09:06:26;;;;;;;32.70;22.90;;;;;;;9.71;62.26;98633.12;108042;1257;61383;-63
2023/02/25 09:08:56;;;;;;;34.70;23.20;;;;;;;9.83;62.14;98624.83;108102;1255;60296;-64
2023/02/25 09:11:25;;;;;;;26.80;21.50;;;;;;;9.94;61.99;98621.33;108075;1256;75461;-64
2023/02/25 09:13:54;;;;;;;27.50;20.20;;;;;;;10.07;61.69;98619.78;108081;1256;72301;-64
2023/02/25 09:16:22;;;;;;;25.50;20.60;;;;;;;10.18;61.51;98614.63;108022;1257;72693;-64
2023/02/25 09:18:51;;;;;;;26.60;19.40;;;;;;;10.28;61.18;98608.65;108048;1256;61977;-63
2023/02/25 09:21:23;;;;;;;25.30;19.00;;;;;;;10.36;60.92;98596.67;108016;1257;60418;-64
2023/02/25 09:23:52;;;;;;;23.20;17.80;;;;;;;10.45;60.62;98594.11;108102;1256;74020;-63
2023/02/25 09:26:21;;;;;;;25.20;18.20;;;;;;;10.52;60.53;98590.48;108104;1256;72941;-64
2023/02/25 09:28:50;;;;;;;25.90;18.90;;;;;;;10.55;60.29;98584.25;107948;1257;72188;-65
2023/02/25 09:31:18;;;;;;;25.80;17.90;;;;;;;10.62;60.09;98579.71;108035;1256;60597;-61
2023/02/25 09:33:51;;;;;;;24.50;17.00;;;;;;;10.60;60.19;98570.27;108083;1256;60363;-63
2023/02/25 09:36:20;;;;;;;23.30;16.80;;;;;;;10.67;60.15;98565.30;108102;1256;73052;-66
2023/02/25 09:38:49;;;;;;;23.90;17.70;;;;;;;10.75;59.90;98560.00;108107;1256;72054;-66
2023/02/25 09:41:27;;;;;;;;;;;;;;;10.80;59.55;98552.30;108086;1256;74168;-62
2023/02/25 09:44:15;;;;;;;28.30;19.20;;;;;;;10.78;59.22;98538.49;108107;1256;61749;-65
2023/02/25 09:46:49;;;;;;;26.10;18.70;;;;;;;10.76;59.14;98530.98;108160;1257;60297;-64
2023/02/25 09:49:24;;;;;;;25.40;17.60;;;;;;;10.75;59.12;98528.32;108092;1257;74769;-63
2023/02/25 09:52:00;;;;;;;24.30;17.60;;;;;;;10.76;59.19;98520.19;108101;1256;72485;-62
2023/02/25 09:54:33;;;;;;;22.50;17.60;;;;;;;10.79;59.06;98516.54;108026;1256;71570;-63
2023/02/25 09:57:02;;;;;;;23.80;16.90;;;;;;;10.84;58.94;98510.42;108058;1256;62378;-66
2023/02/25 09:59:31;;;;;;;22.30;16.10;;;;;;;10.87;58.85;98500.73;107927;1256;60646;-64
2023/02/25 10:02:32;;;;;;;22.30;16.60;;;;;;;10.91;58.76;98492.29;108005;1256;73284;-64
2023/02/25 10:05:20;;;;;;;21.60;16.90;;;;;;;10.96;58.83;98486.58;108015;1258;70997;-62
2023/02/25 10:08:06;;;;;;;23.50;16.40;;;;;;;11.00;58.64;98475.60;107870;1257;73881;-62
2023/02/25 10:11:08;;;;;;;23.60;16.90;;;;;;;11.05;58.39;98472.31;107897;1257;59726;-63
2023/02/25 10:13:53;;;;;;;24.50;16.50;;;;;;;11.09;58.31;98479.27;107735;1258;60313;-64
2023/02/25 10:16:31;;;;;;;24.60;16.70;;;;;;;11.13;58.32;98480.76;107977;1257;74740;-64
2023/02/25 10:19:08;;;;;;;22.10;16.00;;;;;;;11.19;58.20;98466.46;107879;1258;72872;-62
2023/02/25 10:22:13;;;;;;;22.80;15.40;;;;;;;11.28;58.12;98460.06;107861;1257;74857;-62
2023/02/25 10:24:55;;;;;;;21.40;15.40;;;;;;;11.39;57.87;98467.02;107963;1257;60416;-61
2023/02/25 10:27:38;;;;;;;20.90;16.00;;;;;;;11.48;57.78;98463.58;107969;1257;60585;-63
2023/02/25 10:30:10;;;;;;;19.70;14.10;;;;;;;11.60;57.68;98460.88;107950;1257;73217;-63
2023/02/25 10:32:47;;;;;;;20.80;15.70;;;;;;;11.72;57.31;98457.05;104024;1257;5232124;-62
2023/02/25 10:35:27;;;;;;;19.50;15.00;;;;;;;11.82;57.06;98445.64;107990;1257;60513;-62
2023/02/25 10:37:56;;;;;;;22.40;15.10;;;;;;;11.91;56.91;98442.27;107940;1258;60921;-64
2023/02/25 10:40:28;;;;;;;19.90;12.90;;;;;;;12.05;56.81;98427.97;107953;1256;60277;-62
2023/02/25 10:43:00;;;;;;;18.00;13.20;;;;;;;12.16;56.47;98419.44;108103;1257;73957;-63
2023/02/25 10:45:30;;;;;;;18.60;14.60;;;;;;;12.27;56.36;98410.23;108112;1256;72959;-63
2023/02/25 10:48:12;;;;;;;19.40;14.20;;;;;;;12.41;56.03;98403.23;108106;1257;73194;-64
2023/02/25 10:50:41;;;;;;;18.90;15.20;;;;;;;12.53;55.78;98391.77;108077;1256;60383;-62
2023/02/25 10:53:15;;;;;;;19.40;14.40;;;;;;;12.66;55.37;98382.20;108127;1255;60334;-62
2023/02/25 10:55:53;;;;;;;19.30;14.40;;;;;;;12.89;54.67;98373.95;108021;1256;72186;-63
2023/02/25 10:58:39;;;;;;;16.60;13.40;;;;;;;13.01;54.33;98365.11;108025;1257;72823;-63
2023/02/25 11:01:21;;;;;;;18.70;14.20;;;;;;;13.10;53.98;98357.65;108170;1257;73609;-65
2023/02/25 11:03:59;;;;;;;18.20;13.20;;;;;;;13.19;53.78;98357.58;108143;1256;60332;-64
2023/02/25 11:06:34;;;;;;;20.80;15.10;;;;;;;13.27;53.63;98357.05;108097;1255;60379;-63
2023/02/25 11:09:27;;;;;;;19.60;14.50;;;;;;;13.35;53.28;98365.17;108083;1257;74522;-64
2023/02/25 11:11:59;;;;;;;16.70;12.80;;;;;;;13.40;52.69;98369.73;108012;1257;73162;-67
2023/02/25 11:14:32;;;;;;;16.40;13.10;;;;;;;13.43;52.74;98362.00;108024;1257;73351;-65
2023/02/25 11:17:13;;;;;;;19.00;14.60;;;;;;;13.50;52.53;98353.80;108086;1255;60856;-69
2023/02/25 11:19:44;;;;;;;17.90;14.10;;;;;;;13.55;52.35;98346.81;108061;1257;60659;-64
2023/02/25 11:22:17;;;;;;;18.80;14.80;;;;;;;13.58;52.16;98336.84;108068;1257;72915;-66
2023/02/25 11:25:13;;;;;;;18.70;14.10;;;;;;;13.54;51.95;98331.67;108017;1257;72227;-65
2023/02/25 11:27:42;;;;;;;18.90;14.60;;;;;;;13.49;52.03;98322.39;108045;1257;72895;-63
2023/02/25 11:30:33;;;;;;;20.20;14.90;;;;;;;13.48;52.19;98308.17;108072;1256;60730;-65
2023/02/25 11:33:04;;;;;;;18.60;13.80;;;;;;;13.48;52.28;98298.27;108010;1259;60327;-65
2023/02/25 11:35:37;;;;;;;19.50;15.00;;;;;;;13.45;52.28;98293.97;107958;1257;75071;-65
2023/02/25 11:38:24;;;;;;;17.60;14.40;;;;;;;13.39;52.18;98287.63;108000;1257;72366;-65
2023/02/25 11:40:54;;;;;;;18.30;13.70;;;;;;;13.34;52.22;98292.06;107898;1257;73918;-64
2023/02/25 11:43:34;;;;;;;16.90;13.30;;;;;;;13.32;52.34;98295.08;107691;1257;62215;-64
2023/02/25 11:46:10;;;;;;;20.40;14.60;;;;;;;13.32;52.12;98285.86;107986;1257;61084;-64
2023/02/25 11:49:09;;;;;;;17.20;13.40;;;;;;;13.29;52.17;98282.69;107790;1256;74057;-63
2023/02/25 11:51:45;;;;;;;19.00;13.50;;;;;;;13.23;52.09;98285.08;107939;1256;72709;-64
2023/02/25 11:54:28;;;;;;;17.30;13.60;;;;;;;13.23;52.19;98289.12;107950;1259;73328;-63
2023/02/25 11:57:21;;;;;;;15.40;12.20;;;;;;;13.27;52.13;98285.91;107937;1256;61392;-63
2023/02/25 12:00:26;;;;;;;16.80;12.50;;;;;;;13.35;52.21;98290.96;107834;1256;61054;-63
2023/02/25 12:03:14;;;;;;;22.10;14.10;;;;;;;13.38;52.32;98285.92;107962;1260;75131;-66
2023/02/25 12:06:40;;;;;;;18.50;14.40;;;;;;;13.53;51.96;98281.81;107695;1257;72456;-65
2023/02/25 12:09:56;;;;;;;18.30;13.00;;;;;;;13.56;51.67;98284.98;107942;1256;73264;-62
2023/02/25 12:13:05;;;;;;;19.70;13.90;;;;;;;13.51;51.44;98283.05;108030;1255;59394;-64
2023/02/25 12:15:55;;;;;;;17.10;13.20;;;;;;;13.43;51.58;98277.11;108028;1256;61274;-63
2023/02/25 12:18:34;;;;;;;18.30;14.00;;;;;;;13.41;51.79;98279.56;108088;1257;75189;-65
2023/02/25 12:21:23;;;;;;;17.90;13.80;;;;;;;13.40;51.80;98272.59;108065;1257;72911;-64
2023/02/25 12:24:19;;;;;;;17.70;13.40;;;;;;;13.36;51.74;98275.26;108029;1259;73054;-64
2023/02/25 12:27:12;;;;;;;17.80;14.00;;;;;;;13.28;51.82;98266.67;108032;1257;60357;-66